Time;durP1;ratioP1;P1;durP2;ratioP2;P2;SDS_P1;SDS_P2;PMS_P1;PMS_P2;Temp;Humidity;BMP_temperature;BMP_pressure;BME280_temperature;BME280_humidity;BME280_pressure;Samples;Min_cycle;Max_cycle;Signal;HPM_P1;HPM_P2
2022/07/04 00:00:17;;;;;;;4.82;2.55;;;23.30;78.70;;;;;;5020072;28;20037;-75
2022/07/04 00:02:46;;;;;;;5.72;2.22;;;23.30;78.70;;;;;;5016985;28;20088;-75
2022/07/04 00:05:14;;;;;;;4.15;2.42;;;23.20;78.30;;;;;;5018453;28;20037;-75
2022/07/04 00:07:43;;;;;;;4.38;2.55;;;23.30;79.20;;;;;;5016336;28;20524;-75
2022/07/04 00:10:12;;;;;;;3.42;2.10;;;23.30;78.50;;;;;;5012993;28;20057;-75
2022/07/04 00:12:39;;;;;;;3.40;2.40;;;23.30;78.50;;;;;;5018660;28;20042;-75
2022/07/04 00:15:08;;;;;;;5.47;2.50;;;23.20;78.40;;;;;;5032330;28;20053;-75
2022/07/04 00:17:35;;;;;;;4.07;2.60;;;23.20;79.00;;;;;;5002711;28;20415;-74
2022/07/04 00:20:03;;;;;;;3.60;2.40;;;23.10;79.20;;;;;;5015829;28;20130;-74
2022/07/04 00:22:31;;;;;;;4.60;2.55;;;23.10;79.20;;;;;;5016722;28;20068;-75
2022/07/04 00:24:58;;;;;;;3.33;2.05;;;23.10;79.50;;;;;;5016776;28;20045;-75
2022/07/04 00:27:26;;;;;;;5.43;2.22;;;23.10;79.80;;;;;;5019093;28;21161;-75
2022/07/04 00:29:53;;;;;;;4.93;2.75;;;23.10;79.50;;;;;;5017549;28;20504;-75
2022/07/04 00:32:20;;;;;;;5.13;2.50;;;23.00;79.90;;;;;;5018199;28;20048;-75
2022/07/04 00:34:47;;;;;;;3.55;2.47;;;22.90;80.20;;;;;;5017504;28;20068;-75
2022/07/04 00:37:14;;;;;;;2.92;2.35;;;22.90;80.90;;;;;;5016325;28;20099;-75
2022/07/04 00:39:42;;;;;;;4.43;2.80;;;22.90;81.00;;;;;;5002173;28;20054;-75
2022/07/04 00:42:10;;;;;;;4.47;2.90;;;22.90;81.00;;;;;;5031772;28;20049;-74
2022/07/04 00:44:37;;;;;;;3.60;2.60;;;22.90;81.00;;;;;;5016825;28;20484;-75
2022/07/04 00:47:06;;;;;;;3.95;2.75;;;22.80;81.50;;;;;;5016821;28;20044;-75
2022/07/04 00:49:34;;;;;;;3.47;2.28;;;22.80;81.60;;;;;;5019609;28;20512;-75
2022/07/04 00:52:02;;;;;;;4.22;2.67;;;22.70;81.40;;;;;;5015365;28;20073;-75
2022/07/04 00:54:31;;;;;;;6.35;2.85;;;22.70;81.60;;;;;;5017077;28;20057;-76
2022/07/04 00:56:59;;;;;;;4.85;2.67;;;22.70;81.60;;;;;;5015109;28;20136;-75
2022/07/04 00:59:27;;;;;;;4.60;2.80;;;22.70;81.70;;;;;;5017265;28;20568;-77
2022/07/04 01:01:55;;;;;;;6.53;2.88;;;22.70;81.40;;;;;;5027347;28;20065;-74
2022/07/04 01:04:22;;;;;;;5.88;2.85;;;22.60;81.80;;;;;;5021318;28;20493;-74
2022/07/04 01:06:49;;;;;;;5.10;2.75;;;22.60;81.70;;;;;;5015601;28;20088;-75
2022/07/04 01:09:17;;;;;;;5.13;2.85;;;22.50;82.20;;;;;;5015087;28;20120;-74
2022/07/04 01:11:44;;;;;;;5.00;2.78;;;22.50;82.30;;;;;;5019103;28;20072;-75
2022/07/04 01:14:11;;;;;;;5.65;2.83;;;22.40;82.50;;;;;;5019548;28;20048;-75
2022/07/04 01:16:38;;;;;;;5.80;2.72;;;22.40;82.40;;;;;;5019494;28;20045;-75
2022/07/04 01:19:05;;;;;;;5.03;2.70;;;22.40;83.10;;;;;;5007752;28;20037;-74
2022/07/04 01:21:33;;;;;;;4.82;3.20;;;22.40;82.70;;;;;;5015750;28;20119;-75
2022/07/04 01:24:00;;;;;;;4.20;2.45;;;22.40;83.20;;;;;;5010209;28;20042;-76
2022/07/04 01:26:28;;;;;;;6.53;2.85;;;22.30;83.20;;;;;;5016021;28;20129;-75
2022/07/04 01:28:55;;;;;;;5.13;3.08;;;22.30;83.20;;;;;;5016775;28;20497;-75
2022/07/04 01:31:23;;;;;;;4.07;2.30;;;22.20;83.00;;;;;;5017066;28;20048;-76
2022/07/04 01:33:50;;;;;;;4.00;2.97;;;22.20;82.90;;;;;;5015784;28;20049;-75
2022/07/04 01:36:17;;;;;;;6.20;3.17;;;22.30;83.70;;;;;;5016654;28;20469;-75
2022/07/04 01:38:44;;;;;;;4.07;2.95;;;22.30;83.20;;;;;;5013751;28;20125;-75
2022/07/04 01:41:11;;;;;;;6.57;2.97;;;22.20;83.10;;;;;;5008704;28;20049;-75
2022/07/04 01:43:38;;;;;;;4.18;2.80;;;22.10;83.40;;;;;;5000003;28;20053;-76
2022/07/04 01:46:05;;;;;;;6.10;3.00;;;22.10;83.70;;;;;;5014865;28;20038;-75
2022/07/04 01:48:33;;;;;;;3.78;2.50;;;22.10;83.60;;;;;;5015916;28;20064;-76
2022/07/04 01:50:59;;;;;;;6.05;2.85;;;22.20;83.90;;;;;;5010027;28;20470;-75
2022/07/04 01:53:27;;;;;;;4.82;3.22;;;22.10;84.00;;;;;;5018383;28;20097;-76
2022/07/04 01:55:54;;;;;;;4.65;2.60;;;22.10;84.00;;;;;;5015182;28;20064;-75
2022/07/04 01:58:21;;;;;;;3.53;2.83;;;22.10;84.10;;;;;;5014317;28;20069;-75
2022/07/04 02:03:34;;;;;;;7.30;2.55;;;22.00;85.00;;;;;;5015359;28;20037;-75
2022/07/04 02:06:01;;;;;;;6.95;3.15;;;22.00;84.90;;;;;;5015777;28;20042;-75
2022/07/04 02:09:14;;;;;;;4.88;2.75;;;21.90;84.90;;;;;;5009426;28;20049;-76
2022/07/04 02:11:15;;;;;;;3.92;2.72;;;22.00;85.50;;;;;;5010730;28;20048;-75
2022/07/04 02:13:42;;;;;;;6.20;2.65;;;21.90;85.10;;;;;;5015244;28;20057;-76
2022/07/04 02:16:09;;;;;;;7.13;2.85;;;22.00;84.80;;;;;;4997340;28;20042;-75
2022/07/04 02:18:36;;;;;;;4.70;2.55;;;21.90;85.50;;;;;;5014968;28;20052;-75
2022/07/04 02:21:04;;;;;;;5.25;3.17;;;21.90;86.00;;;;;;5029864;28;20034;-75
2022/07/04 02:23:31;;;;;;;7.00;3.63;;;21.80;85.60;;;;;;5016030;28;20042;-75
2022/07/04 02:25:58;;;;;;;6.38;3.50;;;21.80;85.60;;;;;;5016416;28;20041;-75
2022/07/04 02:28:25;;;;;;;5.68;3.35;;;21.80;86.10;;;;;;5017107;28;20038;-75
2022/07/04 02:30:52;;;;;;;6.13;3.63;;;21.80;85.50;;;;;;4997147;28;20455;-75
2022/07/04 02:33:19;;;;;;;6.65;3.50;;;21.70;85.90;;;;;;5008888;28;20060;-75
2022/07/04 02:35:46;;;;;;;5.30;3.22;;;21.70;85.80;;;;;;5015569;28;20405;-75
2022/07/04 02:38:13;;;;;;;7.93;3.53;;;21.70;85.60;;;;;;5016219;28;20041;-75
2022/07/04 02:40:40;;;;;;;7.10;3.50;;;21.70;85.40;;;;;;5031210;28;20103;-75
2022/07/04 02:43:08;;;;;;;5.22;3.13;;;21.70;85.40;;;;;;5016579;28;20041;-76
2022/07/04 02:45:35;;;;;;;5.32;3.70;;;21.70;85.40;;;;;;5011158;28;20061;-75
2022/07/04 02:48:02;;;;;;;5.80;3.03;;;21.80;86.50;;;;;;5017286;28;20050;-75
2022/07/04 02:50:29;;;;;;;4.72;3.00;;;21.70;86.40;;;;;;5015950;28;20086;-75
2022/07/04 02:52:56;;;;;;;6.00;3.22;;;21.70;86.00;;;;;;5015245;28;20045;-75
2022/07/04 02:55:23;;;;;;;6.28;3.08;;;21.70;86.20;;;;;;5013990;28;20803;-75
2022/07/04 02:57:50;;;;;;;5.18;3.22;;;21.70;87.30;;;;;;5017928;28;20042;-75
2022/07/04 03:00:17;;;;;;;7.13;3.40;;;21.80;88.20;;;;;;5017488;28;20416;-75
2022/07/04 03:02:44;;;;;;;10.05;3.30;;;21.80;88.50;;;;;;5024021;28;20049;-74
2022/07/04 03:05:11;;;;;;;4.72;3.25;;;21.80;88.40;;;;;;5012931;28;20416;-75
2022/07/04 03:07:38;;;;;;;5.30;3.50;;;21.80;87.50;;;;;;5017875;28;20128;-75
2022/07/04 03:10:06;;;;;;;5.35;3.67;;;21.80;84.00;;;;;;5030793;28;20493;-75
2022/07/04 03:12:33;;;;;;;4.10;3.10;;;21.80;85.90;;;;;;5015633;28;20049;-75
2022/07/04 03:15:00;;;;;;;4.60;3.10;;;21.90;84.70;;;;;;4995131;28;20038;-74
2022/07/04 03:17:30;;;;;;;4.35;3.15;;;21.90;84.60;;;;;;5015944;28;20435;-75
2022/07/04 03:19:58;;;;;;;5.00;3.53;;;21.90;83.30;;;;;;5014062;28;20116;-75
2022/07/04 03:22:25;;;;;;;4.93;3.08;;;21.90;84.50;;;;;;5014108;28;20046;-74
2022/07/04 03:24:53;;;;;;;6.20;3.30;;;21.90;84.70;;;;;;5017893;28;20041;-75
2022/07/04 03:27:20;;;;;;;4.57;3.08;;;22.00;85.60;;;;;;5010063;28;20038;-75
2022/07/04 03:29:47;;;;;;;5.18;3.42;;;22.00;84.90;;;;;;5021071;28;20128;-74
2022/07/04 03:32:14;;;;;;;5.28;3.25;;;21.90;86.20;;;;;;5018321;28;20519;-77
2022/07/04 03:34:41;;;;;;;5.50;3.42;;;22.00;86.30;;;;;;5019154;28;20122;-77
2022/07/04 03:37:08;;;;;;;5.25;3.30;;;22.00;85.20;;;;;;5019985;28;20099;-77
2022/07/04 03:39:35;;;;;;;5.82;3.63;;;22.00;86.00;;;;;;5002969;28;20501;-74
2022/07/04 03:42:03;;;;;;;6.15;3.35;;;22.00;88.40;;;;;;5022678;28;20052;-77
2022/07/04 03:44:30;;;;;;;5.57;3.45;;;22.00;86.90;;;;;;5019651;28;20112;-77
2022/07/04 03:46:58;;;;;;;5.43;3.40;;;22.00;86.10;;;;;;5019196;28;20046;-75
2022/07/04 03:49:26;;;;;;;5.63;3.72;;;22.00;85.00;;;;;;5015654;28;20057;-75
2022/07/04 03:51:53;;;;;;;5.53;3.35;;;22.10;85.50;;;;;;4998581;28;20061;-74
2022/07/04 03:54:20;;;;;;;10.30;3.50;;;22.10;86.00;;;;;;5018858;28;20064;-75
2022/07/04 03:56:47;;;;;;;11.27;4.43;;;22.10;86.00;;;;;;5018234;28;20643;-75
2022/07/04 03:59:14;;;;;;;10.63;4.10;;;22.10;85.70;;;;;;5019218;28;20073;-74
2022/07/04 04:01:41;;;;;;;12.68;3.10;;;22.20;86.40;;;;;;5016249;28;20041;-75
2022/07/04 04:06:54;;;;;;;8.35;2.85;;;22.20;87.00;;;;;;5010229;28;20476;-76
2022/07/04 04:09:24;;;;;;;8.95;3.60;;;22.30;88.30;;;;;;5001483;28;20082;-76
2022/07/04 04:11:52;;;;;;;6.90;3.47;;;22.30;88.60;;;;;;5019041;28;20103;-75
2022/07/04 04:14:19;;;;;;;9.40;3.45;;;22.30;88.00;;;;;;5009554;28;20049;-76
2022/07/04 04:16:46;;;;;;;12.63;4.03;;;22.40;88.10;;;;;;5000148;28;20061;-76
2022/07/04 04:19:13;;;;;;;8.00;3.67;;;22.50;87.10;;;;;;5016959;28;20047;-76
2022/07/04 04:21:40;;;;;;;10.35;3.15;;;22.60;87.30;;;;;;5015850;28;20120;-75
2022/07/04 04:24:08;;;;;;;10.77;3.55;;;22.60;86.60;;;;;;5016062;28;20057;-76
2022/07/04 04:26:35;;;;;;;7.22;3.17;;;22.70;86.20;;;;;;5018989;28;20460;-75
2022/07/04 04:29:03;;;;;;;13.00;4.35;;;22.80;85.30;;;;;;5019332;28;20057;-75
2022/07/04 04:31:30;;;;;;;7.05;3.58;;;22.80;86.10;;;;;;5018209;28;20440;-75
2022/07/04 04:33:58;;;;;;;6.53;3.30;;;22.90;85.20;;;;;;5017127;28;20121;-76
2022/07/04 04:36:25;;;;;;;7.97;3.17;;;23.00;85.00;;;;;;5018364;28;20077;-75
2022/07/04 04:38:52;;;;;;;6.72;3.00;;;23.10;83.60;;;;;;5010820;28;20048;-75
2022/07/04 04:41:20;;;;;;;5.65;2.83;;;23.10;83.80;;;;;;5017275;28;20034;-75
2022/07/04 04:43:47;;;;;;;7.88;3.10;;;23.20;82.90;;;;;;5019824;28;20051;-76
2022/07/04 04:46:19;;;;;;;5.53;3.20;;;23.30;81.30;;;;;;5019131;28;20115;-75
2022/07/04 04:48:46;;;;;;;10.85;3.03;;;23.40;82.60;;;;;;5017250;28;20038;-75
2022/07/04 04:51:13;;;;;;;5.65;3.05;;;23.40;82.40;;;;;;5016374;28;20141;-75
2022/07/04 04:53:40;;;;;;;4.55;3.15;;;23.60;82.50;;;;;;5019247;28;20817;-76
2022/07/04 04:56:07;;;;;;;5.90;3.28;;;23.60;80.80;;;;;;5000888;28;20053;-75
2022/07/04 04:58:34;;;;;;;6.60;3.22;;;23.70;77.00;;;;;;5017656;28;20061;-75
2022/07/04 05:01:02;;;;;;;6.50;3.30;;;23.80;79.70;;;;;;5004497;28;20041;-76
2022/07/04 05:03:49;;;;;;;5.78;3.63;;;23.90;79.50;;;;;;4992534;28;20045;-76
2022/07/04 05:06:18;;;;;;;5.57;2.58;;;24.00;80.50;;;;;;4995262;28;20527;-76
2022/07/04 05:08:45;;;;;;;9.13;3.45;;;24.10;80.50;;;;;;4980517;28;20048;-75
2022/07/04 05:11:12;;;;;;;6.47;2.80;;;24.20;79.50;;;;;;4979581;28;20068;-75
2022/07/04 05:13:39;;;;;;;5.70;3.08;;;24.30;77.30;;;;;;4981450;28;20049;-75
2022/07/04 05:16:07;;;;;;;7.57;2.95;;;24.50;77.90;;;;;;4984724;28;20064;-75
2022/07/04 05:18:34;;;;;;;11.77;3.17;;;24.60;75.30;;;;;;4960312;28;20152;-75
2022/07/04 05:21:01;;;;;;;4.65;2.53;;;24.70;76.70;;;;;;4979137;28;20725;-75
2022/07/04 05:23:28;;;;;;;10.52;3.78;;;24.90;75.90;;;;;;4980598;28;20054;-75
2022/07/04 05:25:55;;;;;;;6.78;3.33;;;25.00;75.90;;;;;;4981010;28;20053;-75
2022/07/04 05:28:22;;;;;;;4.65;2.47;;;25.20;74.70;;;;;;4978478;28;20045;-74
2022/07/04 05:30:49;;;;;;;6.72;2.58;;;25.40;73.70;;;;;;4980116;28;20053;-77
2022/07/04 05:33:16;;;;;;;7.18;2.75;;;25.50;72.20;;;;;;4969182;28;20446;-77
2022/07/04 05:35:43;;;;;;;3.70;2.40;;;25.70;71.50;;;;;;4966935;28;20052;-75
2022/07/04 05:38:10;;;;;;;4.22;2.53;;;25.90;71.00;;;;;;4980745;28;20045;-75
2022/07/04 05:40:37;;;;;;;7.85;2.55;;;26.00;69.60;;;;;;4963544;28;20439;-74
2022/07/04 05:43:04;;;;;;;4.43;2.80;;;26.30;69.00;;;;;;4991247;28;20038;-76
2022/07/04 05:45:31;;;;;;;8.68;2.60;;;26.40;69.00;;;;;;4968156;28;20049;-75
2022/07/04 05:48:00;;;;;;;4.05;2.30;;;26.50;68.70;;;;;;4965565;28;20187;-75
2022/07/04 05:50:27;;;;;;;5.63;2.42;;;26.60;67.00;;;;;;4975506;28;20049;-77
2022/07/04 05:52:59;;;;;;;5.35;2.78;;;26.80;67.00;;;;;;4980873;28;20752;-75
2022/07/04 05:55:26;;;;;;;3.30;2.40;;;27.00;68.50;;;;;;4994370;28;20041;-75
2022/07/04 05:57:53;;;;;;;5.18;2.40;;;27.20;66.90;;;;;;4951016;28;22206;-75
2022/07/04 06:00:20;;;;;;;5.90;2.78;;;27.20;65.70;;;;;;4962090;28;21040;-75
2022/07/04 06:02:48;;;;;;;4.40;2.50;;;27.20;64.20;;;;;;4978096;28;22174;-75
2022/07/04 06:05:15;;;;;;;3.95;2.20;;;27.30;63.50;;;;;;4979570;28;20050;-76
2022/07/04 06:07:42;;;;;;;4.43;1.92;;;27.50;62.90;;;;;;4977042;28;20046;-75
2022/07/04 06:10:10;;;;;;;5.18;2.97;;;27.80;63.90;;;;;;4962414;28;20046;-76
2022/07/04 06:12:37;;;;;;;2.78;1.50;;;27.80;61.00;;;;;;4976676;28;20413;-76
2022/07/04 06:15:06;;;;;;;2.95;2.00;;;27.90;60.60;;;;;;4995365;28;20053;-75
2022/07/04 06:17:33;;;;;;;4.22;2.45;;;28.00;60.20;;;;;;4978131;28;20051;-75
2022/07/04 06:20:00;;;;;;;3.28;2.05;;;28.10;59.20;;;;;;4979685;28;20828;-75
2022/07/04 06:22:27;;;;;;;4.63;1.80;;;28.20;59.40;;;;;;4966583;28;20045;-76
2022/07/04 06:24:54;;;;;;;3.25;1.70;;;28.30;58.90;;;;;;4971115;28;20279;-76
2022/07/04 06:27:22;;;;;;;3.03;1.65;;;28.50;58.00;;;;;;4975654;28;20045;-76
2022/07/04 06:29:49;;;;;;;6.70;2.10;;;28.70;58.50;;;;;;4993381;28;20223;-75
2022/07/04 06:32:16;;;;;;;3.47;1.55;;;28.90;57.80;;;;;;4991872;28;20071;-75
2022/07/04 06:37:29;;;;;;;1.40;0.70;;;29.20;54.00;;;;;;4979615;28;20081;-75
2022/07/04 06:40:02;;;;;;;2.55;1.00;;;29.30;51.60;;;;;;4977117;28;20048;-76
2022/07/04 06:42:29;;;;;;;1.05;0.70;;;29.40;52.20;;;;;;4972441;28;20548;-75
2022/07/04 06:44:56;;;;;;;5.03;1.08;;;29.50;52.20;;;;;;4978700;28;20653;-76
2022/07/04 06:47:24;;;;;;;6.45;0.88;;;29.60;50.70;;;;;;4981160;28;20563;-75
2022/07/04 06:49:51;;;;;;;1.95;0.70;;;29.60;51.40;;;;;;4979798;28;20045;-75
2022/07/04 06:52:18;;;;;;;3.40;0.93;;;29.70;49.80;;;;;;4975095;28;20061;-77
2022/07/04 06:54:45;;;;;;;1.30;0.70;;;29.70;51.10;;;;;;4998776;28;22053;-77
2022/07/04 06:57:13;;;;;;;1.80;0.60;;;29.80;50.60;;;;;;4990178;28;21040;-76
2022/07/04 06:59:57;;;;;;;0.90;0.68;;;30.00;49.90;;;;;;4961943;28;20067;-76
2022/07/04 07:02:24;;;;;;;1.23;0.68;;;29.90;50.30;;;;;;4964971;28;20044;-76
2022/07/04 07:04:53;;;;;;;1.02;0.85;;;30.10;50.00;;;;;;4963791;28;20058;-75
2022/07/04 07:07:20;;;;;;;5.80;1.40;;;30.10;49.20;;;;;;4978625;28;20046;-76
2022/07/04 07:09:48;;;;;;;3.78;1.02;;;30.10;48.80;;;;;;4978494;28;20175;-76
2022/07/04 07:12:15;;;;;;;4.55;1.05;;;30.30;49.80;;;;;;4971308;28;20060;-75
2022/07/04 07:14:42;;;;;;;1.30;0.77;;;30.40;49.20;;;;;;4995480;28;20102;-77
2022/07/04 07:17:09;;;;;;;2.40;0.80;;;30.50;50.20;;;;;;4981468;28;20049;-76
2022/07/04 07:19:36;;;;;;;0.95;0.47;;;30.60;48.40;;;;;;4985576;28;20124;-76
2022/07/04 07:22:03;;;;;;;3.72;1.10;;;30.50;48.00;;;;;;5000945;28;20049;-76
2022/07/04 07:24:31;;;;;;;0.57;0.50;;;30.60;47.30;;;;;;4979372;28;20053;-75
2022/07/04 07:26:58;;;;;;;2.88;1.17;;;30.70;47.20;;;;;;4987136;28;20044;-76
2022/07/04 07:29:25;;;;;;;0.60;0.40;;;30.70;47.60;;;;;;4985470;28;20053;-76
2022/07/04 07:31:52;;;;;;;2.22;0.80;;;31.00;48.00;;;;;;4961245;28;20541;-76
2022/07/04 07:34:19;;;;;;;1.77;0.52;;;31.10;49.00;;;;;;4983550;28;21963;-76
2022/07/04 07:36:46;;;;;;;1.27;0.75;;;30.90;47.10;;;;;;4975712;28;20079;-76
2022/07/04 07:39:13;;;;;;;3.17;0.60;;;30.80;46.80;;;;;;4997644;28;20343;-76
2022/07/04 07:41:41;;;;;;;1.20;0.50;;;30.80;46.30;;;;;;4973095;28;20058;-76
2022/07/04 07:44:08;;;;;;;0.98;0.50;;;30.90;46.80;;;;;;4982892;28;20046;-78
2022/07/04 07:46:36;;;;;;;2.88;0.80;;;31.00;46.10;;;;;;4977180;28;20179;-77
2022/07/04 07:49:03;;;;;;;3.80;0.88;;;31.20;46.10;;;;;;4976114;28;20060;-75
2022/07/04 07:51:30;;;;;;;0.95;0.50;;;31.20;46.90;;;;;;5004165;28;20077;-76
2022/07/04 07:53:58;;;;;;;0.75;0.50;;;31.10;46.80;;;;;;5009870;28;20068;-75
2022/07/04 07:56:45;;;;;;;1.75;0.50;;;31.10;45.40;;;;;;5011895;28;20057;-76
2022/07/04 07:59:12;;;;;;;1.00;0.50;;;31.10;46.30;;;;;;5001064;28;20053;-77
2022/07/04 08:01:39;;;;;;;1.02;0.52;;;31.00;46.20;;;;;;5005415;28;20045;-76
2022/07/04 08:06:52;;;;;;;1.80;0.40;;;31.10;46.60;;;;;;5002454;28;20412;-76
2022/07/04 08:09:40;;;;;;;1.50;0.50;;;31.20;46.10;;;;;;5009504;28;20153;-78
2022/07/04 08:12:08;;;;;;;6.05;0.50;;;31.30;44.90;;;;;;5008305;28;20057;-76
2022/07/04 08:14:35;;;;;;;4.13;0.45;;;31.50;44.50;;;;;;5013167;28;20529;-76
2022/07/04 08:17:05;;;;;;;1.15;0.32;;;31.40;44.60;;;;;;5010442;28;20054;-76
2022/07/04 08:19:32;;;;;;;1.73;0.47;;;31.40;44.40;;;;;;5015879;28;20686;-77
2022/07/04 08:21:59;;;;;;;1.48;0.43;;;31.50;44.60;;;;;;5010608;28;20045;-75
2022/07/04 08:24:43;;;;;;;1.10;0.60;;;31.50;45.70;;;;;;5006442;28;20061;-77
2022/07/04 08:27:11;;;;;;;1.13;0.40;;;31.50;44.50;;;;;;4986034;28;20045;-75
2022/07/04 08:29:39;;;;;;;0.90;0.68;;;31.60;44.70;;;;;;5010616;28;20037;-75
2022/07/04 08:32:07;;;;;;;2.10;0.30;;;31.50;44.70;;;;;;5007144;28;20724;-77
2022/07/04 08:34:35;;;;;;;1.33;0.60;;;31.60;44.80;;;;;;5012773;28;20110;-76
2022/07/04 08:37:03;;;;;;;0.90;0.40;;;31.60;44.30;;;;;;5010155;28;22316;-76
2022/07/04 08:39:31;;;;;;;1.35;0.30;;;31.60;44.70;;;;;;5008646;28;20140;-76
2022/07/04 08:42:03;;;;;;;1.08;0.73;;;31.70;44.70;;;;;;4987815;28;20502;-75
2022/07/04 08:44:30;;;;;;;1.02;0.50;;;31.50;44.90;;;;;;5002657;28;20055;-75
2022/07/04 08:46:57;;;;;;;1.05;0.30;;;31.40;45.10;;;;;;4996267;28;20045;-75
2022/07/04 08:49:31;;;;;;;1.02;0.45;;;31.60;45.10;;;;;;5003926;28;20080;-76
2022/07/04 08:52:05;;;;;;;3.97;1.05;;;31.70;44.40;;;;;;5002839;28;20115;-75
2022/07/04 09:00:06;;;;;;;0.90;0.43;;;31.90;45.10;;;;;;5006413;28;20045;-76
2022/07/04 09:02:37;;;;;;;2.58;0.38;;;31.90;45.00;;;;;;4998903;28;22465;-76
2022/07/04 09:05:06;;;;;;;0.60;0.30;;;32.10;44.30;;;;;;4995228;28;20859;-76
2022/07/04 09:07:33;;;;;;;0.93;0.30;;;32.00;44.30;;;;;;5009459;28;20294;-76
2022/07/04 09:10:02;;;;;;;2.40;0.57;;;32.00;43.40;;;;;;4996491;28;20476;-76
2022/07/04 09:12:29;;;;;;;2.20;0.40;;;32.00;43.60;;;;;;5004961;28;20065;-75
2022/07/04 09:15:17;;;;;;;0.55;0.47;;;32.00;43.40;;;;;;4992170;28;20127;-77
2022/07/04 09:17:45;;;;;;;0.98;0.45;;;32.20;43.60;;;;;;4997602;28;20054;-75
2022/07/04 09:20:23;;;;;;;2.83;0.40;;;32.20;44.20;;;;;;4994352;28;20048;-75
2022/07/04 09:22:51;;;;;;;1.17;0.43;;;32.20;43.20;;;;;;4980237;28;20045;-76
2022/07/04 09:25:19;;;;;;;0.77;0.30;;;32.10;42.70;;;;;;4986239;28;20048;-75
2022/07/04 09:27:48;;;;;;;1.67;0.43;;;32.10;42.80;;;;;;5003024;28;20057;-75
2022/07/04 09:30:17;;;;;;;1.83;0.43;;;32.30;44.00;;;;;;4997506;28;20338;-75
2022/07/04 09:32:54;;;;;;;3.85;0.77;;;32.20;43.00;;;;;;5008712;28;20052;-75
2022/07/04 09:35:23;;;;;;;5.85;0.60;;;32.20;42.50;;;;;;4981972;28;20060;-76
2022/07/04 09:37:51;;;;;;;0.70;0.30;;;32.30;42.40;;;;;;4992127;28;22463;-76
2022/07/04 09:40:25;;;;;;;3.15;0.63;;;32.10;42.90;;;;;;4996511;28;20061;-76
2022/07/04 09:42:54;;;;;;;2.25;0.80;;;32.10;42.70;;;;;;5021952;28;20470;-76
2022/07/04 09:45:24;;;;;;;1.70;0.50;;;32.10;43.10;;;;;;5003304;28;20038;-77
2022/07/04 09:47:56;;;;;;;2.40;0.50;;;32.20;43.30;;;;;;5005732;28;20115;-76
2022/07/04 09:50:26;;;;;;;1.63;0.52;;;32.30;43.70;;;;;;4999970;28;20061;-75
2022/07/04 09:52:56;;;;;;;1.65;0.30;;;32.30;43.20;;;;;;5007877;28;20172;-76
2022/07/04 09:55:27;;;;;;;1.42;0.50;;;32.20;42.50;;;;;;4975281;28;20056;-76
2022/07/04 09:58:00;;;;;;;2.38;0.50;;;32.30;43.30;;;;;;4970906;28;20077;-75
2022/07/04 10:00:28;;;;;;;2.53;0.50;;;32.30;42.70;;;;;;4976143;28;22437;-76
2022/07/04 10:03:15;;;;;;;1.15;0.60;;;32.30;42.80;;;;;;4968616;28;20045;-76
2022/07/04 10:05:44;;;;;;;1.00;0.40;;;32.20;43.50;;;;;;4979049;28;20088;-77
2022/07/04 10:08:11;;;;;;;0.60;0.40;;;32.20;42.00;;;;;;4968552;28;22128;-76
2022/07/04 10:10:39;;;;;;;2.17;0.30;;;32.20;42.80;;;;;;4979936;28;20061;-76
2022/07/04 10:13:13;;;;;;;0.70;0.50;;;32.20;43.30;;;;;;4962443;28;20049;-76
2022/07/04 10:15:42;;;;;;;1.23;0.60;;;32.40;44.00;;;;;;4966931;28;20755;-76
2022/07/04 10:18:09;;;;;;;2.85;0.60;;;32.50;43.10;;;;;;4977888;28;20050;-76
2022/07/04 10:20:37;;;;;;;0.80;0.45;;;32.50;43.10;;;;;;4975092;28;21992;-76
2022/07/04 10:23:04;;;;;;;0.90;0.32;;;32.40;42.50;;;;;;4981480;28;20045;-74
2022/07/04 10:25:31;;;;;;;1.17;0.68;;;32.30;42.80;;;;;;4973889;28;20124;-75
2022/07/04 10:27:58;;;;;;;1.00;0.60;;;32.20;42.60;;;;;;4990792;28;20046;-77
2022/07/04 10:30:29;;;;;;;1.05;0.55;;;32.30;43.40;;;;;;4990349;28;20053;-76
2022/07/04 10:33:03;;;;;;;0.85;0.50;;;32.30;42.90;;;;;;4981177;28;20053;-78
2022/07/04 10:35:49;;;;;;;2.10;0.90;;;32.20;43.00;;;;;;4968933;28;20086;-75
2022/07/04 10:38:18;;;;;;;2.03;0.65;;;32.30;42.80;;;;;;4994129;28;20068;-76
2022/07/04 10:40:47;;;;;;;1.33;0.50;;;32.50;44.00;;;;;;4967720;28;20379;-76
2022/07/04 10:43:40;;;;;;;0.98;0.80;;;32.50;43.00;;;;;;4981153;28;20049;-75
2022/07/04 10:46:13;;;;;;;2.05;0.70;;;32.40;43.10;;;;;;4976099;28;20045;-76
2022/07/04 10:49:04;;;;;;;1.23;0.50;;;32.50;43.80;;;;;;4973677;28;20188;-75
2022/07/04 10:52:00;;;;;;;2.00;0.68;;;32.60;43.00;;;;;;4961636;28;20045;-76
2022/07/04 10:54:32;;;;;;;1.08;0.47;;;32.60;43.10;;;;;;4972904;28;20179;-75
2022/07/04 10:57:12;;;;;;;1.45;0.70;;;32.80;42.60;;;;;;4971032;28;20151;-75
2022/07/04 11:00:01;;;;;;;4.60;0.60;;;32.70;42.80;;;;;;4960738;28;20037;-76
2022/07/04 11:02:30;;;;;;;1.70;0.47;;;32.70;42.10;;;;;;4957615;28;20147;-76
2022/07/04 11:05:06;;;;;;;3.08;0.60;;;32.80;42.40;;;;;;4985934;28;20084;-75
2022/07/04 11:07:36;;;;;;;3.45;0.55;;;32.80;41.60;;;;;;4992945;28;20132;-76
2022/07/04 11:10:12;;;;;;;1.33;0.60;;;32.80;42.30;;;;;;4959816;28;20049;-76
2022/07/04 11:12:59;;;;;;;5.72;0.50;;;33.00;42.20;;;;;;4990934;28;20121;-76
2022/07/04 11:15:32;;;;;;;0.85;0.47;;;33.00;39.80;;;;;;4972425;28;22203;-76
2022/07/04 11:18:01;;;;;;;5.95;0.50;;;33.00;40.50;;;;;;4955883;28;20812;-76
2022/07/04 11:20:31;;;;;;;2.60;0.52;;;33.00;41.00;;;;;;4964394;28;20041;-76
2022/07/04 11:23:08;;;;;;;1.48;0.43;;;33.00;40.00;;;;;;4964252;28;20382;-76
2022/07/04 11:25:36;;;;;;;3.15;0.40;;;32.90;40.50;;;;;;4972765;28;20068;-77
2022/07/04 11:28:28;;;;;;;4.72;0.52;;;33.00;41.70;;;;;;4973827;28;20583;-76
2022/07/04 11:31:13;;;;;;;1.27;0.50;;;33.00;40.40;;;;;;4955419;28;20616;-76
2022/07/04 11:33:41;;;;;;;0.85;0.43;;;32.90;42.20;;;;;;4983503;28;20056;-76
2022/07/04 11:36:14;;;;;;;1.27;0.40;;;33.00;42.40;;;;;;4980088;28;20429;-76
2022/07/04 11:38:51;;;;;;;0.80;0.35;;;33.00;41.60;;;;;;4954741;28;20061;-76
2022/07/04 11:47:09;;;;;;;2.15;0.60;;;32.90;42.40;;;;;;4976368;28;20060;-76
2022/07/04 11:49:50;;;;;;;1.27;0.43;;;33.30;41.40;;;;;;4983506;28;20143;-75
2022/07/04 11:52:28;;;;;;;2.25;0.28;;;33.10;40.20;;;;;;4986999;28;20049;-76
2022/07/04 11:55:04;;;;;;;2.63;0.60;;;33.00;41.00;;;;;;4979268;28;20519;-75
2022/07/04 11:57:35;;;;;;;0.93;0.40;;;32.90;40.40;;;;;;4975655;28;20052;-76
2022/07/04 12:00:06;;;;;;;0.68;0.30;;;32.90;41.20;;;;;;4982908;28;20053;-76
2022/07/04 12:02:39;;;;;;;1.25;0.30;;;32.90;40.00;;;;;;4987584;28;22357;-77
2022/07/04 12:05:08;;;;;;;1.88;0.30;;;33.00;38.60;;;;;;4998537;28;20059;-77
2022/07/04 12:07:38;;;;;;;0.85;0.30;;;33.40;38.30;;;;;;4990897;28;20046;-76
2022/07/04 12:10:08;;;;;;;0.55;0.40;;;33.30;38.20;;;;;;4984758;28;20053;-76
2022/07/04 12:12:35;;;;;;;1.85;0.30;;;33.20;38.70;;;;;;4970252;28;20523;-77
2022/07/04 12:15:05;;;;;;;0.50;0.30;;;33.30;38.70;;;;;;4970205;28;20056;-76
2022/07/04 12:17:37;;;;;;;0.73;0.30;;;33.20;38.00;;;;;;4950765;28;20065;-76
2022/07/04 12:20:17;;;;;;;0.55;0.30;;;33.10;39.50;;;;;;4983024;28;20110;-77
2022/07/04 12:22:56;;;;;;;0.40;0.20;;;33.20;39.00;;;;;;4955609;28;20186;-76
2022/07/04 12:25:37;;;;;;;2.05;0.32;;;33.20;37.60;;;;;;4970188;28;20077;-76
2022/07/04 12:28:15;;;;;;;3.17;0.30;;;33.20;39.10;;;;;;4988357;28;20049;-77
2022/07/04 12:30:54;;;;;;;1.13;0.40;;;33.40;37.60;;;;;;4987249;28;20825;-76
2022/07/04 12:33:24;;;;;;;0.75;0.30;;;33.40;37.20;;;;;;4987522;28;20064;-76
2022/07/04 12:35:54;;;;;;;0.90;0.30;;;33.50;37.70;;;;;;5012237;28;20054;-76
2022/07/04 12:38:41;;;;;;;3.70;0.30;;;33.50;38.50;;;;;;4991910;28;20176;-77
2022/07/04 12:41:11;;;;;;;0.60;0.40;;;33.40;38.70;;;;;;5002810;28;20048;-77
2022/07/04 12:43:41;;;;;;;0.80;0.20;;;33.50;36.50;;;;;;4972371;28;20809;-77
2022/07/04 12:46:24;;;;;;;1.35;0.30;;;33.50;36.90;;;;;;4995637;28;20051;-77
2022/07/04 12:48:56;;;;;;;1.67;0.30;;;33.60;36.30;;;;;;4975058;28;20058;-76
2022/07/04 12:51:30;;;;;;;0.95;0.20;;;33.70;36.00;;;;;;4982109;28;20536;-77
2022/07/04 12:53:59;;;;;;;0.45;0.20;;;33.70;36.50;;;;;;4978199;28;20688;-77
2022/07/04 12:56:31;;;;;;;1.58;0.30;;;33.60;36.30;;;;;;4973497;28;20050;-77
2022/07/04 12:59:05;;;;;;;0.57;0.30;;;33.60;37.80;;;;;;4977961;28;20508;-76
2022/07/04 13:01:40;;;;;;;2.00;0.25;;;33.60;36.60;;;;;;4990165;28;20563;-76
2022/07/04 13:04:07;;;;;;;0.98;0.30;;;33.50;36.80;;;;;;4976317;28;20050;-76
2022/07/04 13:06:35;;;;;;;0.85;0.30;;;33.40;37.10;;;;;;4973089;28;20048;-76
2022/07/04 13:09:03;;;;;;;0.70;0.30;;;33.50;37.90;;;;;;4976544;28;22138;-75
2022/07/04 13:14:16;;;;;;;0.73;0.32;;;33.70;37.70;;;;;;4979141;28;20055;-75
2022/07/04 13:16:44;;;;;;;3.85;0.80;;;33.70;37.00;;;;;;4957875;28;20793;-76
2022/07/04 13:19:11;;;;;;;4.28;0.43;;;33.80;37.30;;;;;;4978782;28;20058;-75
2022/07/04 13:21:38;;;;;;;5.38;1.60;;;33.90;36.20;;;;;;4976745;28;20667;-76